Time;durP1;ratioP1;P1;durP2;ratioP2;P2;SDS_P1;SDS_P2;PMS_P1;PMS_P2;Temp;Humidity;BMP_temperature;BMP_pressure;BME280_temperature;BME280_humidity;BME280_pressure;Samples;Min_cycle;Max_cycle;Signal;HPM_P1;HPM_P2
2023/09/06 00:02:15;;;;;;;4.78;1.95;;;;;;;;;;4952548;28;20231;-63
2023/09/06 00:04:43;;;;;;;1.85;1.83;;;;;;;;;;4951258;28;20207;-64
2023/09/06 00:07:10;;;;;;;1.95;1.85;;;;;;;;;;4963857;28;20241;-64
2023/09/06 00:09:38;;;;;;;2.17;2.00;;;;;;;;;;4953172;28;20206;-64
2023/09/06 00:12:05;;;;;;;2.10;2.00;;;;;;;;;;4964169;28;20882;-64
2023/09/06 00:14:32;;;;;;;1.85;1.67;;;;;;;;;;4963968;28;20218;-64
2023/09/06 00:16:59;;;;;;;2.75;1.98;;;;;;;;;;4956574;28;20210;-63
2023/09/06 00:19:26;;;;;;;3.42;2.17;;;;;;;;;;4951453;28;20218;-63
2023/09/06 00:21:54;;;;;;;2.42;2.20;;;;;;;;;;4958917;28;20226;-64
2023/09/06 00:24:21;;;;;;;2.08;1.85;;;;;;;;;;4955401;28;20677;-63
2023/09/06 00:26:49;;;;;;;2.20;1.90;;;;;;;;;;4951395;28;20211;-64
2023/09/06 00:29:16;;;;;;;2.30;2.20;;;;;;;;;;4951364;28;20207;-64
2023/09/06 00:31:43;;;;;;;1.88;1.70;;;;;;;;;;4951147;28;20213;-64
2023/09/06 00:34:10;;;;;;;2.10;2.00;;;;;;;;;;4956849;28;20684;-64
2023/09/06 00:36:37;;;;;;;1.95;1.83;;;;;;;;;;4960778;28;20203;-64
2023/09/06 00:39:06;;;;;;;2.00;2.00;;;;;;;;;;4944658;28;20659;-63
2023/09/06 00:41:33;;;;;;;3.20;2.05;;;;;;;;;;4950968;28;20298;-63
2023/09/06 00:44:00;;;;;;;2.20;2.10;;;;;;;;;;4959797;28;20203;-63
2023/09/06 00:46:28;;;;;;;1.70;1.70;;;;;;;;;;4957640;28;20219;-63
2023/09/06 00:48:55;;;;;;;1.65;1.65;;;;;;;;;;4956159;28;20207;-63
2023/09/06 00:51:22;;;;;;;4.05;1.73;;;;;;;;;;4950952;28;20261;-63
2023/09/06 00:53:49;;;;;;;1.80;1.70;;;;;;;;;;4951932;28;20681;-63
2023/09/06 00:56:18;;;;;;;3.88;2.03;;;;;;;;;;4967672;28;20218;-64
2023/09/06 00:58:45;;;;;;;6.63;2.13;;;;;;;;;;4955177;28;20215;-63
2023/09/06 01:01:12;;;;;;;3.38;2.40;;;;;;;;;;4947559;28;20215;-64
2023/09/06 01:03:41;;;;;;;1.83;1.73;;;;;;;;;;4951917;28;20214;-64
2023/09/06 01:06:12;;;;;;;2.47;1.90;;;;;;;;;;4950846;28;20261;-63
2023/09/06 01:08:40;;;;;;;1.80;1.60;;;;;;;;;;4957630;28;20340;-63
2023/09/06 01:11:18;;;;;;;2.90;1.95;;;;;;;;;;4957366;28;20642;-64
2023/09/06 01:13:46;;;;;;;2.80;1.90;;;;;;;;;;4963229;28;20309;-63
2023/09/06 01:16:14;;;;;;;2.10;2.00;;;;;;;;;;4951929;28;20550;-64
2023/09/06 01:18:42;;;;;;;4.50;2.30;;;;;;;;;;4948821;28;20585;-64
2023/09/06 01:21:12;;;;;;;2.00;1.90;;;;;;;;;;4952663;28;20684;-64
2023/09/06 01:23:40;;;;;;;1.55;1.50;;;;;;;;;;4960922;28;20299;-64
2023/09/06 01:26:08;;;;;;;2.03;1.92;;;;;;;;;;4935738;29;20210;-64
2023/09/06 01:28:35;;;;;;;2.13;2.00;;;;;;;;;;4951355;28;20218;-63
2023/09/06 01:31:03;;;;;;;2.08;2.08;;;;;;;;;;4950188;28;20681;-64
2023/09/06 01:33:30;;;;;;;4.97;2.10;;;;;;;;;;4950170;28;20202;-63
2023/09/06 01:35:58;;;;;;;2.63;2.53;;;;;;;;;;4952775;28;20215;-64
2023/09/06 01:38:25;;;;;;;2.25;2.10;;;;;;;;;;4955667;28;20254;-63
2023/09/06 01:40:54;;;;;;;2.13;2.00;;;;;;;;;;4950182;28;20243;-63
2023/09/06 01:43:21;;;;;;;2.50;2.30;;;;;;;;;;4951765;28;20724;-63
2023/09/06 01:45:50;;;;;;;2.33;2.15;;;;;;;;;;4964337;28;20214;-63
2023/09/06 01:48:19;;;;;;;3.22;2.10;;;;;;;;;;4951640;28;20207;-63
2023/09/06 01:50:46;;;;;;;1.88;1.88;;;;;;;;;;4954866;28;20535;-63
2023/09/06 01:53:14;;;;;;;2.30;2.13;;;;;;;;;;4954237;28;20206;-63
2023/09/06 01:55:42;;;;;;;3.35;2.50;;;;;;;;;;4954002;28;20238;-63
2023/09/06 01:58:11;;;;;;;2.45;2.25;;;;;;;;;;4954938;28;20670;-63
2023/09/06 02:00:38;;;;;;;2.40;2.30;;;;;;;;;;4953877;28;20206;-63
2023/09/06 02:03:06;;;;;;;2.17;2.08;;;;;;;;;;4957686;28;20983;-63
2023/09/06 02:05:33;;;;;;;2.53;2.38;;;;;;;;;;4955900;28;20218;-63
2023/09/06 02:08:01;;;;;;;2.50;2.40;;;;;;;;;;4952742;28;20211;-63
2023/09/06 02:10:28;;;;;;;2.22;2.13;;;;;;;;;;4954651;28;20206;-63
2023/09/06 02:12:55;;;;;;;2.58;2.40;;;;;;;;;;4953559;28;20226;-63
2023/09/06 02:15:23;;;;;;;2.03;2.03;;;;;;;;;;4953739;28;20223;-63
2023/09/06 02:17:51;;;;;;;2.70;2.60;;;;;;;;;;4954222;28;20302;-63
2023/09/06 02:20:19;;;;;;;1.90;1.90;;;;;;;;;;4954403;28;20199;-64
2023/09/06 02:22:47;;;;;;;2.55;2.47;;;;;;;;;;4946622;28;21022;-63
2023/09/06 02:25:15;;;;;;;2.97;2.45;;;;;;;;;;4953196;28;20606;-62
2023/09/06 02:27:42;;;;;;;2.35;2.25;;;;;;;;;;4952544;28;20211;-63
2023/09/06 02:30:09;;;;;;;2.20;2.00;;;;;;;;;;4952868;28;20215;-62
2023/09/06 02:32:38;;;;;;;2.55;2.35;;;;;;;;;;4953840;28;20199;-63
2023/09/06 02:35:06;;;;;;;3.00;2.38;;;;;;;;;;4952845;28;20207;-63
2023/09/06 02:37:33;;;;;;;2.25;2.05;;;;;;;;;;4953087;28;20298;-62
2023/09/06 02:40:00;;;;;;;2.25;2.15;;;;;;;;;;4968646;28;20238;-63
2023/09/06 02:42:27;;;;;;;2.17;2.08;;;;;;;;;;4957844;28;20620;-63
2023/09/06 02:44:55;;;;;;;7.95;2.08;;;;;;;;;;4964692;28;20202;-63
2023/09/06 02:47:28;;;;;;;2.22;2.22;;;;;;;;;;4953467;28;20208;-63
2023/09/06 02:49:56;;;;;;;3.42;3.20;;;;;;;;;;4952780;28;20310;-63
2023/09/06 02:52:29;;;;;;;2.03;1.92;;;;;;;;;;4951936;28;20217;-63
2023/09/06 02:54:57;;;;;;;2.97;2.78;;;;;;;;;;4952176;28;20215;-62
2023/09/06 02:57:25;;;;;;;2.15;2.05;;;;;;;;;;4952301;28;20289;-63
2023/09/06 02:59:53;;;;;;;2.55;2.35;;;;;;;;;;4952461;28;20404;-63
2023/09/06 03:02:22;;;;;;;1.98;1.98;;;;;;;;;;4952032;28;20314;-63
2023/09/06 03:04:51;;;;;;;2.22;2.13;;;;;;;;;;4954642;28;20213;-63
2023/09/06 03:07:19;;;;;;;2.65;2.28;;;;;;;;;;4964715;28;20207;-62
2023/09/06 03:09:46;;;;;;;2.70;2.50;;;;;;;;;;4952598;28;20219;-63
2023/09/06 03:12:14;;;;;;;2.67;2.47;;;;;;;;;;4942559;28;20203;-63
2023/09/06 03:14:44;;;;;;;4.47;2.53;;;;;;;;;;4959980;28;20238;-63
2023/09/06 03:17:11;;;;;;;3.70;2.38;;;;;;;;;;4954122;28;20251;-63
2023/09/06 03:19:40;;;;;;;2.38;2.28;;;;;;;;;;4957126;28;20203;-63
2023/09/06 03:22:09;;;;;;;2.80;1.92;;;;;;;;;;4947007;28;20241;-63
2023/09/06 03:24:40;;;;;;;2.30;2.10;;;;;;;;;;4954662;28;20662;-63
2023/09/06 03:27:07;;;;;;;2.80;2.30;;;;;;;;;;4951999;28;20223;-63
2023/09/06 03:29:36;;;;;;;2.15;2.05;;;;;;;;;;4952715;28;20218;-63
2023/09/06 03:32:03;;;;;;;6.20;2.38;;;;;;;;;;4953425;28;20203;-63
2023/09/06 03:34:30;;;;;;;2.72;2.53;;;;;;;;;;4956316;28;20218;-63
2023/09/06 03:36:57;;;;;;;4.57;2.80;;;;;;;;;;4954148;28;20218;-62
2023/09/06 03:39:28;;;;;;;2.58;2.47;;;;;;;;;;4959220;28;20218;-63
2023/09/06 03:42:00;;;;;;;2.40;2.30;;;;;;;;;;4959140;28;20711;-63
2023/09/06 03:44:27;;;;;;;3.70;2.25;;;;;;;;;;4955140;28;20222;-62
2023/09/06 03:46:56;;;;;;;2.60;2.50;;;;;;;;;;4960441;28;20209;-63
2023/09/06 03:49:24;;;;;;;4.35;2.85;;;;;;;;;;4969156;28;20209;-62
2023/09/06 03:51:51;;;;;;;3.53;2.60;;;;;;;;;;4964961;28;20223;-63
2023/09/06 03:54:18;;;;;;;2.42;2.33;;;;;;;;;;4962243;28;21099;-62
2023/09/06 03:56:45;;;;;;;2.60;2.40;;;;;;;;;;4953541;28;20214;-63
2023/09/06 03:59:15;;;;;;;2.63;2.50;;;;;;;;;;4951369;28;20215;-63
2023/09/06 04:01:43;;;;;;;4.53;3.00;;;;;;;;;;4954955;28;20550;-63
2023/09/06 04:04:12;;;;;;;2.55;2.20;;;;;;;;;;4962888;28;20237;-63
2023/09/06 04:06:43;;;;;;;2.47;2.38;;;;;;;;;;4954275;28;20211;-63
2023/09/06 04:09:13;;;;;;;2.85;2.67;;;;;;;;;;4951667;28;20218;-63
2023/09/06 04:11:40;;;;;;;3.13;2.72;;;;;;;;;;4953834;28;20673;-63
2023/09/06 04:14:07;;;;;;;3.65;3.20;;;;;;;;;;4954870;28;20210;-63
2023/09/06 04:16:36;;;;;;;3.03;2.90;;;;;;;;;;4956967;28;20208;-63
2023/09/06 04:19:03;;;;;;;3.03;2.50;;;;;;;;;;4962585;28;20210;-63
2023/09/06 04:21:30;;;;;;;2.75;2.63;;;;;;;;;;4955269;28;20310;-63
2023/09/06 04:23:57;;;;;;;3.00;2.80;;;;;;;;;;4955149;28;20238;-63
2023/09/06 04:26:25;;;;;;;4.55;2.53;;;;;;;;;;4957075;28;20569;-63
2023/09/06 04:28:52;;;;;;;3.22;2.45;;;;;;;;;;4956213;28;20213;-63
2023/09/06 04:31:19;;;;;;;2.65;2.55;;;;;;;;;;4963224;28;20203;-63
2023/09/06 04:33:47;;;;;;;2.47;2.35;;;;;;;;;;4948560;28;20206;-63
2023/09/06 04:36:14;;;;;;;2.88;2.45;;;;;;;;;;4966101;28;20210;-63
2023/09/06 04:38:43;;;;;;;3.60;2.95;;;;;;;;;;4959422;28;20560;-63
2023/09/06 04:41:11;;;;;;;3.17;2.90;;;;;;;;;;4951198;29;20246;-63
2023/09/06 04:43:38;;;;;;;3.08;2.88;;;;;;;;;;4951407;28;20310;-63
2023/09/06 04:46:05;;;;;;;3.05;2.60;;;;;;;;;;4951877;28;20241;-64
2023/09/06 04:48:32;;;;;;;2.88;2.67;;;;;;;;;;4962089;28;20238;-64
2023/09/06 04:51:01;;;;;;;2.38;2.33;;;;;;;;;;4949982;28;20214;-63
2023/09/06 04:53:28;;;;;;;2.80;2.60;;;;;;;;;;4952995;28;20210;-63
2023/09/06 04:55:55;;;;;;;3.00;2.80;;;;;;;;;;4951054;29;20206;-63
2023/09/06 04:58:22;;;;;;;2.95;2.78;;;;;;;;;;4952875;28;20273;-63
2023/09/06 05:00:49;;;;;;;7.63;2.80;;;;;;;;;;4951327;28;20214;-63
2023/09/06 05:03:18;;;;;;;2.70;2.50;;;;;;;;;;4956580;28;20234;-63
2023/09/06 05:05:46;;;;;;;2.60;2.47;;;;;;;;;;4955174;28;20211;-63
2023/09/06 05:08:14;;;;;;;2.75;2.65;;;;;;;;;;4950731;28;20215;-63
2023/09/06 05:10:41;;;;;;;2.50;2.40;;;;;;;;;;4954375;28;20736;-63
2023/09/06 05:13:11;;;;;;;2.55;2.45;;;;;;;;;;4960488;28;20744;-62
2023/09/06 05:15:38;;;;;;;2.92;2.72;;;;;;;;;;4952575;28;20203;-62
2023/09/06 05:18:06;;;;;;;5.15;2.67;;;;;;;;;;4950899;28;20218;-63
2023/09/06 05:20:33;;;;;;;2.53;2.42;;;;;;;;;;4950007;28;20215;-63
2023/09/06 05:23:02;;;;;;;47.88;8.68;;;;;;;;;;4963089;28;20337;-62
2023/09/06 05:25:31;;;;;;;2.70;2.60;;;;;;;;;;4958670;28;20208;-62
2023/09/06 05:27:59;;;;;;;2.72;2.58;;;;;;;;;;4944519;28;20219;-62
2023/09/06 05:30:26;;;;;;;3.00;2.80;;;;;;;;;;4961015;28;20230;-63
2023/09/06 05:32:53;;;;;;;2.70;2.47;;;;;;;;;;4952021;28;20298;-63
2023/09/06 05:35:20;;;;;;;2.58;2.47;;;;;;;;;;4960127;28;20726;-62
2023/09/06 05:37:47;;;;;;;2.58;2.38;;;;;;;;;;4956231;28;20214;-63
2023/09/06 05:40:14;;;;;;;3.25;3.00;;;;;;;;;;4950192;28;20237;-63
2023/09/06 05:42:43;;;;;;;3.47;2.70;;;;;;;;;;4951003;28;20214;-63
2023/09/06 05:45:11;;;;;;;3.00;2.90;;;;;;;;;;4950921;28;20639;-63
2023/09/06 05:47:39;;;;;;;2.55;2.45;;;;;;;;;;4958084;28;20198;-64
2023/09/06 05:50:07;;;;;;;4.78;2.70;;;;;;;;;;4950260;29;20281;-69
2023/09/06 05:52:34;;;;;;;2.60;2.47;;;;;;;;;;4950376;28;20674;-68
2023/09/06 05:55:01;;;;;;;3.05;2.53;;;;;;;;;;4954050;28;20681;-68
2023/09/06 05:57:28;;;;;;;3.90;3.05;;;;;;;;;;4950305;28;20302;-62
2023/09/06 05:59:57;;;;;;;2.60;2.45;;;;;;;;;;4950279;28;20223;-63
2023/09/06 06:02:24;;;;;;;3.13;2.55;;;;;;;;;;4962656;28;20200;-63
2023/09/06 06:04:52;;;;;;;3.28;2.78;;;;;;;;;;4949661;28;20223;-62
2023/09/06 06:07:19;;;;;;;5.07;2.55;;;;;;;;;;4955845;28;20248;-62
2023/09/06 06:09:46;;;;;;;3.47;2.55;;;;;;;;;;4949673;28;20218;-62
2023/09/06 06:12:13;;;;;;;3.25;2.30;;;;;;;;;;4955273;28;20210;-62
2023/09/06 06:14:41;;;;;;;2.60;2.50;;;;;;;;;;4964457;28;20965;-63
2023/09/06 06:17:09;;;;;;;2.67;2.47;;;;;;;;;;4956594;28;20298;-62
2023/09/06 06:19:37;;;;;;;4.10;3.22;;;;;;;;;;4968500;28;20581;-60
2023/09/06 06:22:04;;;;;;;6.38;3.10;;;;;;;;;;4959845;28;20211;-62
2023/09/06 06:24:31;;;;;;;2.58;2.47;;;;;;;;;;4968263;28;20228;-63
2023/09/06 06:26:59;;;;;;;2.80;2.60;;;;;;;;;;4962908;28;20597;-63
2023/09/06 06:29:26;;;;;;;3.05;2.85;;;;;;;;;;4949501;28;20295;-63
2023/09/06 06:31:53;;;;;;;2.90;2.70;;;;;;;;;;4950100;28;20229;-61
2023/09/06 06:34:21;;;;;;;3.10;2.60;;;;;;;;;;4961834;28;20210;-61
2023/09/06 06:36:48;;;;;;;4.20;2.40;;;;;;;;;;4957741;28;20211;-63
2023/09/06 06:39:16;;;;;;;2.92;2.72;;;;;;;;;;4965626;28;20226;-61
2023/09/06 06:41:44;;;;;;;2.67;2.50;;;;;;;;;;4959104;28;20235;-62
2023/09/06 06:44:11;;;;;;;3.42;3.25;;;;;;;;;;4971822;28;20618;-61
2023/09/06 06:46:39;;;;;;;2.80;2.60;;;;;;;;;;4971944;28;20205;-62
2023/09/06 06:49:08;;;;;;;4.05;2.42;;;;;;;;;;4954477;28;20226;-62
2023/09/06 06:51:38;;;;;;;5.15;2.65;;;;;;;;;;4952830;29;20214;-62
2023/09/06 06:54:06;;;;;;;2.83;2.50;;;;;;;;;;4952146;28;20305;-62
2023/09/06 06:56:35;;;;;;;2.78;2.50;;;;;;;;;;4952302;29;20257;-63
2023/09/06 06:59:02;;;;;;;3.05;2.50;;;;;;;;;;4952872;29;20283;-63
2023/09/06 07:01:30;;;;;;;2.95;2.67;;;;;;;;;;4953643;28;20218;-63
2023/09/06 07:03:57;;;;;;;2.65;2.55;;;;;;;;;;4952556;29;20238;-63
2023/09/06 07:06:25;;;;;;;2.65;2.47;;;;;;;;;;4958590;28;20206;-63
2023/09/06 07:08:54;;;;;;;3.33;3.08;;;;;;;;;;4952304;28;20788;-63
2023/09/06 07:11:21;;;;;;;2.30;2.30;;;;;;;;;;4952930;29;20222;-62
2023/09/06 07:13:48;;;;;;;4.53;2.42;;;;;;;;;;4954853;28;20202;-62
2023/09/06 07:16:16;;;;;;;2.47;2.22;;;;;;;;;;4952632;29;20697;-63
2023/09/06 07:18:43;;;;;;;4.03;2.58;;;;;;;;;;4952790;29;20678;-62
2023/09/06 07:21:10;;;;;;;2.95;2.40;;;;;;;;;;4952667;29;20301;-62
2023/09/06 07:23:37;;;;;;;3.08;2.60;;;;;;;;;;4952463;29;20326;-62
2023/09/06 07:26:06;;;;;;;2.80;2.70;;;;;;;;;;4950608;29;20215;-63
2023/09/06 07:28:40;;;;;;;2.67;2.45;;;;;;;;;;4952452;28;20728;-62
2023/09/06 07:31:07;;;;;;;2.75;2.65;;;;;;;;;;4949228;29;21037;-63
2023/09/06 07:33:34;;;;;;;3.42;2.90;;;;;;;;;;4952339;29;20215;-62
2023/09/06 07:36:01;;;;;;;3.63;2.70;;;;;;;;;;4952410;29;20681;-61
2023/09/06 07:38:28;;;;;;;2.95;2.60;;;;;;;;;;4952510;29;20231;-62
2023/09/06 07:40:58;;;;;;;2.92;2.80;;;;;;;;;;4951594;28;20250;-61
2023/09/06 07:43:28;;;;;;;4.07;2.75;;;;;;;;;;4952255;29;20249;-63
2023/09/06 07:45:56;;;;;;;2.67;2.58;;;;;;;;;;4951308;28;20686;-63
2023/09/06 07:48:23;;;;;;;3.25;2.60;;;;;;;;;;4952302;29;20247;-63
2023/09/06 07:50:51;;;;;;;3.28;3.10;;;;;;;;;;4952336;29;20238;-63
2023/09/06 07:53:18;;;;;;;2.60;2.40;;;;;;;;;;4951675;29;20219;-63
2023/09/06 07:55:45;;;;;;;3.20;3.00;;;;;;;;;;4951074;28;20207;-62
2023/09/06 07:58:13;;;;;;;2.72;2.63;;;;;;;;;;4951983;29;20215;-63
2023/09/06 08:00:41;;;;;;;2.88;2.78;;;;;;;;;;4951655;28;20215;-68
2023/09/06 08:03:08;;;;;;;4.72;2.92;;;;;;;;;;4964525;28;20218;-67
2023/09/06 08:05:36;;;;;;;2.97;2.75;;;;;;;;;;4960650;28;20226;-67
2023/09/06 08:08:03;;;;;;;2.78;2.60;;;;;;;;;;4951257;29;20294;-67
2023/09/06 08:10:30;;;;;;;3.22;3.00;;;;;;;;;;4951973;29;20262;-67
2023/09/06 08:12:57;;;;;;;2.50;2.40;;;;;;;;;;4951702;29;20250;-67
2023/09/06 08:15:24;;;;;;;2.90;2.67;;;;;;;;;;4951436;29;20304;-68
2023/09/06 08:17:53;;;;;;;3.28;3.08;;;;;;;;;;4950952;29;20654;-67
2023/09/06 08:20:20;;;;;;;6.25;3.40;;;;;;;;;;4951327;29;20964;-68
2023/09/06 08:22:47;;;;;;;5.88;3.03;;;;;;;;;;4956776;28;20222;-68
2023/09/06 08:25:15;;;;;;;4.25;2.83;;;;;;;;;;4956878;28;20235;-70
2023/09/06 08:27:42;;;;;;;3.00;2.80;;;;;;;;;;4950913;29;20210;-68
2023/09/06 08:30:11;;;;;;;2.90;2.70;;;;;;;;;;4951411;29;20812;-68
2023/09/06 08:32:38;;;;;;;2.85;2.67;;;;;;;;;;4950952;29;20203;-66
2023/09/06 08:35:07;;;;;;;4.28;2.83;;;;;;;;;;4950328;28;20203;-67
2023/09/06 08:37:34;;;;;;;2.80;2.70;;;;;;;;;;4951270;29;20226;-62
2023/09/06 08:40:01;;;;;;;3.40;3.22;;;;;;;;;;4949898;28;20730;-62
2023/09/06 08:42:33;;;;;;;3.05;2.95;;;;;;;;;;4969062;28;20207;-60
2023/09/06 08:45:00;;;;;;;4.03;3.00;;;;;;;;;;4950268;29;20603;-60
2023/09/06 08:47:28;;;;;;;3.00;2.80;;;;;;;;;;4951391;29;20211;-58
2023/09/06 08:49:55;;;;;;;4.32;2.90;;;;;;;;;;4951077;29;20691;-61
2023/09/06 08:52:24;;;;;;;3.22;3.03;;;;;;;;;;4951136;29;20221;-61
2023/09/06 08:54:51;;;;;;;3.10;2.90;;;;;;;;;;4950744;29;20207;-61
2023/09/06 08:57:19;;;;;;;3.00;2.80;;;;;;;;;;4950945;28;20207;-63
2023/09/06 08:59:47;;;;;;;3.10;2.90;;;;;;;;;;4947794;28;20218;-60
2023/09/06 09:02:15;;;;;;;2.83;2.63;;;;;;;;;;4949553;28;20230;-60
2023/09/06 09:04:42;;;;;;;2.67;2.58;;;;;;;;;;4949146;29;20231;-60
2023/09/06 09:07:10;;;;;;;3.03;2.90;;;;;;;;;;4948132;29;20199;-61
2023/09/06 09:09:52;;;;;;;2.63;2.42;;;;;;;;;;4961892;28;20269;-60
2023/09/06 09:12:23;;;;;;;2.70;2.60;;;;;;;;;;4969397;28;20206;-61
2023/09/06 09:14:50;;;;;;;2.97;2.40;;;;;;;;;;4952879;28;20234;-60
2023/09/06 09:17:20;;;;;;;2.78;2.67;;;;;;;;;;4949045;29;20215;-61
2023/09/06 09:19:49;;;;;;;2.67;2.58;;;;;;;;;;4950324;28;20305;-61
2023/09/06 09:22:16;;;;;;;3.20;3.00;;;;;;;;;;4953409;28;20213;-65
2023/09/06 09:24:43;;;;;;;3.13;2.90;;;;;;;;;;4939446;29;20231;-63
2023/09/06 09:27:10;;;;;;;2.95;2.75;;;;;;;;;;4950623;29;20222;-63
2023/09/06 09:29:39;;;;;;;2.88;2.65;;;;;;;;;;4950607;29;20211;-62
2023/09/06 09:32:07;;;;;;;2.72;2.63;;;;;;;;;;4950526;29;20848;-62
2023/09/06 09:34:34;;;;;;;2.92;2.72;;;;;;;;;;4950345;29;20202;-62
2023/09/06 09:37:05;;;;;;;2.50;2.40;;;;;;;;;;4950326;29;20210;-64
2023/09/06 09:39:32;;;;;;;3.03;2.88;;;;;;;;;;4949481;28;20237;-62
2023/09/06 09:41:59;;;;;;;3.00;2.72;;;;;;;;;;4950549;29;20222;-64
2023/09/06 09:44:26;;;;;;;2.60;2.50;;;;;;;;;;4950499;29;20230;-62
2023/09/06 09:46:57;;;;;;;2.60;2.50;;;;;;;;;;4950336;29;20238;-63
2023/09/06 09:49:24;;;;;;;2.60;2.50;;;;;;;;;;4949907;29;20293;-62
2023/09/06 09:51:51;;;;;;;2.58;2.47;;;;;;;;;;4944894;28;20215;-63
2023/09/06 09:54:19;;;;;;;2.95;2.75;;;;;;;;;;4943247;28;20216;-62
2023/09/06 09:56:48;;;;;;;2.70;2.58;;;;;;;;;;4969283;28;20218;-62
2023/09/06 09:59:20;;;;;;;2.90;2.80;;;;;;;;;;4951541;28;20599;-63
2023/09/06 10:01:51;;;;;;;4.63;2.90;;;;;;;;;;4949863;28;20215;-63
2023/09/06 10:04:20;;;;;;;2.40;2.40;;;;;;;;;;4948668;28;20321;-63
2023/09/06 10:06:48;;;;;;;2.70;2.58;;;;;;;;;;4950093;28;20222;-63
2023/09/06 10:09:16;;;;;;;2.88;2.78;;;;;;;;;;4933720;29;20215;-63
2023/09/06 10:11:43;;;;;;;2.70;2.60;;;;;;;;;;4952929;28;20222;-63
2023/09/06 10:14:12;;;;;;;3.55;2.58;;;;;;;;;;4953783;28;20318;-63
2023/09/06 10:16:40;;;;;;;2.90;2.80;;;;;;;;;;4954129;28;20211;-63
2023/09/06 10:19:08;;;;;;;2.72;2.63;;;;;;;;;;4953256;29;20329;-62
2023/09/06 10:21:36;;;;;;;2.75;2.55;;;;;;;;;;4951815;29;20712;-62
2023/09/06 10:24:04;;;;;;;3.03;2.83;;;;;;;;;;4952957;28;20214;-63
2023/09/06 10:26:34;;;;;;;2.58;2.55;;;;;;;;;;4952330;29;20314;-63
2023/09/06 10:29:01;;;;;;;2.50;2.40;;;;;;;;;;4963106;28;20220;-63
2023/09/06 10:31:35;;;;;;;3.00;2.80;;;;;;;;;;4963201;28;20210;-62
2023/09/06 10:34:02;;;;;;;2.97;2.88;;;;;;;;;;4952142;29;20313;-63
2023/09/06 10:36:30;;;;;;;2.90;2.80;;;;;;;;;;4952432;29;20233;-63
2023/09/06 10:39:18;;;;;;;2.92;2.75;;;;;;;;;;4952687;29;20227;-64
2023/09/06 10:42:04;;;;;;;2.60;2.50;;;;;;;;;;4956418;28;20214;-64
2023/09/06 10:44:31;;;;;;;2.45;2.33;;;;;;;;;;4954394;28;20416;-64
2023/09/06 10:47:18;;;;;;;3.20;2.83;;;;;;;;;;4952702;28;20574;-63
2023/09/06 10:50:07;;;;;;;3.15;2.95;;;;;;;;;;4945468;29;20692;-63
2023/09/06 10:52:42;;;;;;;2.80;2.67;;;;;;;;;;4949510;28;20214;-63
2023/09/06 10:55:15;;;;;;;3.03;2.83;;;;;;;;;;4952181;29;20623;-63
2023/09/06 10:57:48;;;;;;;3.22;2.70;;;;;;;;;;4933267;29;20215;-63
2023/09/06 11:00:19;;;;;;;2.80;2.60;;;;;;;;;;4945510;28;20257;-62
2023/09/06 11:03:06;;;;;;;2.83;2.60;;;;;;;;;;4952252;29;20270;-63
2023/09/06 11:05:35;;;;;;;2.78;2.65;;;;;;;;;;4952168;29;20238;-62
2023/09/06 11:08:02;;;;;;;3.08;2.92;;;;;;;;;;4952495;29;20214;-63
2023/09/06 11:10:30;;;;;;;2.42;2.42;;;;;;;;;;4952430;29;20213;-63
2023/09/06 11:12:58;;;;;;;5.03;2.72;;;;;;;;;;4952424;29;20215;-63
2023/09/06 11:15:25;;;;;;;3.10;2.90;;;;;;;;;;4953173;28;20195;-64
2023/09/06 11:17:52;;;;;;;2.97;2.78;;;;;;;;;;4952230;28;20211;-63
2023/09/06 11:20:20;;;;;;;2.85;2.75;;;;;;;;;;4948350;28;20211;-63
2023/09/06 11:22:50;;;;;;;4.70;2.95;;;;;;;;;;4952337;29;20242;-63
2023/09/06 11:25:18;;;;;;;3.03;2.58;;;;;;;;;;4949394;28;20278;-63
2023/09/06 11:27:47;;;;;;;3.00;2.88;;;;;;;;;;4948939;28;20301;-68
2023/09/06 11:30:18;;;;;;;3.55;3.22;;;;;;;;;;4950837;29;20245;-64
2023/09/06 11:32:45;;;;;;;3.05;2.78;;;;;;;;;;4954498;28;20238;-63
2023/09/06 11:35:14;;;;;;;2.72;2.63;;;;;;;;;;4952140;28;20211;-63
2023/09/06 11:37:44;;;;;;;2.53;2.42;;;;;;;;;;4957118;28;20210;-62
2023/09/06 11:40:14;;;;;;;3.22;2.50;;;;;;;;;;4952423;29;20255;-61
2023/09/06 11:42:41;;;;;;;2.85;2.40;;;;;;;;;;4952739;29;20222;-61
2023/09/06 11:45:12;;;;;;;4.82;2.90;;;;;;;;;;4954036;28;20701;-62
2023/09/06 11:47:39;;;;;;;2.78;2.67;;;;;;;;;;4952268;28;20278;-62
2023/09/06 11:50:08;;;;;;;2.30;2.20;;;;;;;;;;4950632;28;20243;-62
2023/09/06 11:52:37;;;;;;;2.78;2.40;;;;;;;;;;4948523;29;20210;-63
2023/09/06 11:55:05;;;;;;;2.55;2.35;;;;;;;;;;4960365;28;20203;-58
2023/09/06 11:57:33;;;;;;;2.35;2.35;;;;;;;;;;4964698;28;20218;-62
2023/09/06 12:00:00;;;;;;;2.42;2.33;;;;;;;;;;4969440;28;20217;-62
2023/09/06 12:02:30;;;;;;;3.15;2.85;;;;;;;;;;4962760;28;20210;-62
2023/09/06 12:05:00;;;;;;;3.03;2.92;;;;;;;;;;4964475;28;20234;-63
2023/09/06 12:07:28;;;;;;;2.60;2.40;;;;;;;;;;4961770;28;20217;-62
2023/09/06 12:09:57;;;;;;;2.60;2.40;;;;;;;;;;4951435;29;20210;-62
2023/09/06 12:12:24;;;;;;;2.58;2.47;;;;;;;;;;4949781;29;20246;-63
2023/09/06 12:14:51;;;;;;;2.50;2.40;;;;;;;;;;4952862;28;20213;-62
2023/09/06 12:17:19;;;;;;;2.30;2.30;;;;;;;;;;4953027;28;20700;-62
2023/09/06 12:19:48;;;;;;;2.65;2.55;;;;;;;;;;4949733;29;20720;-62
2023/09/06 12:22:17;;;;;;;2.67;2.28;;;;;;;;;;4949021;28;20219;-62
2023/09/06 12:24:46;;;;;;;2.53;2.42;;;;;;;;;;4950082;29;20215;-62
2023/09/06 12:27:14;;;;;;;2.05;2.00;;;;;;;;;;4950657;29;20210;-61
2023/09/06 12:29:42;;;;;;;2.30;2.20;;;;;;;;;;4950341;28;20690;-62
2023/09/06 12:32:09;;;;;;;2.63;2.00;;;;;;;;;;4950234;28;20215;-62
2023/09/06 12:34:37;;;;;;;2.70;2.50;;;;;;;;;;4950626;29;20662;-63
2023/09/06 12:37:05;;;;;;;2.35;2.25;;;;;;;;;;4950567;29;20596;-63
2023/09/06 12:39:32;;;;;;;2.65;2.47;;;;;;;;;;4950537;29;20227;-61
2023/09/06 12:41:59;;;;;;;2.65;2.47;;;;;;;;;;4950333;29;20669;-61
2023/09/06 12:44:26;;;;;;;2.00;2.00;;;;;;;;;;4950808;29;20214;-61
2023/09/06 12:46:53;;;;;;;2.65;2.55;;;;;;;;;;4950333;29;20318;-61
2023/09/06 12:49:20;;;;;;;4.00;2.20;;;;;;;;;;4950372;29;20242;-61
2023/09/06 12:51:48;;;;;;;2.53;2.42;;;;;;;;;;4950520;29;20694;-60
2023/09/06 12:54:17;;;;;;;2.15;2.10;;;;;;;;;;4949777;28;20207;-60
2023/09/06 12:56:44;;;;;;;2.63;2.47;;;;;;;;;;4950823;28;20207;-60
2023/09/06 12:59:11;;;;;;;2.65;2.50;;;;;;;;;;4950413;29;20215;-60
2023/09/06 13:01:38;;;;;;;2.15;2.05;;;;;;;;;;4950293;29;20226;-61
2023/09/06 13:04:06;;;;;;;2.10;2.10;;;;;;;;;;4950468;29;20222;-60
2023/09/06 13:06:33;;;;;;;2.25;2.13;;;;;;;;;;4950649;29;20257;-60
2023/09/06 13:09:00;;;;;;;2.72;2.53;;;;;;;;;;4950321;29;20215;-61
2023/09/06 13:11:29;;;;;;;2.40;2.30;;;;;;;;;;4949546;28;20226;-62
2023/09/06 13:13:56;;;;;;;2.20;2.10;;;;;;;;;;4949289;28;20210;-61
2023/09/06 13:16:23;;;;;;;2.33;2.20;;;;;;;;;;4950855;28;20632;-63
2023/09/06 13:18:51;;;;;;;2.70;2.50;;;;;;;;;;4949964;29;20278;-62
2023/09/06 13:21:20;;;;;;;2.45;2.25;;;;;;;;;;4950077;28;20215;-62
2023/09/06 13:23:47;;;;;;;2.35;2.15;;;;;;;;;;4950034;28;20211;-62
2023/09/06 13:26:14;;;;;;;2.72;2.50;;;;;;;;;;4952998;28;20906;-62
2023/09/06 13:28:43;;;;;;;2.10;2.00;;;;;;;;;;4947339;28;20215;-61
2023/09/06 13:31:10;;;;;;;3.30;2.20;;;;;;;;;;4948569;28;20222;-61
2023/09/06 13:33:37;;;;;;;2.38;2.28;;;;;;;;;;4936911;29;20211;-60
2023/09/06 13:36:05;;;;;;;2.00;1.90;;;;;;;;;;4949516;28;20575;-63
2023/09/06 13:38:32;;;;;;;2.05;1.90;;;;;;;;;;4949592;28;20765;-64
2023/09/06 13:40:59;;;;;;;2.05;2.00;;;;;;;;;;4946484;29;20744;-63
2023/09/06 13:43:26;;;;;;;2.30;2.20;;;;;;;;;;4945222;28;20215;-63
2023/09/06 13:45:55;;;;;;;2.33;2.33;;;;;;;;;;4937951;29;20242;-63
2023/09/06 13:48:22;;;;;;;2.63;2.47;;;;;;;;;;4937342;28;20590;-64
2023/09/06 13:50:49;;;;;;;2.38;2.28;;;;;;;;;;4942000;28;20210;-63
2023/09/06 13:53:16;;;;;;;2.97;2.63;;;;;;;;;;4930658;29;20215;-63
2023/09/06 13:55:43;;;;;;;2.55;2.45;;;;;;;;;;4946662;28;20211;-63
2023/09/06 13:58:11;;;;;;;2.55;2.28;;;;;;;;;;4949730;29;20238;-63
2023/09/06 14:00:38;;;;;;;2.50;2.40;;;;;;;;;;4948018;28;20203;-63
2023/09/06 14:03:07;;;;;;;2.45;2.08;;;;;;;;;;4947689;28;20693;-65
2023/09/06 14:05:35;;;;;;;3.95;2.22;;;;;;;;;;4946726;28;20260;-62
2023/09/06 14:08:02;;;;;;;2.35;2.13;;;;;;;;;;4948435;28;20242;-62
2023/09/06 14:10:29;;;;;;;2.00;1.90;;;;;;;;;;4947531;28;20243;-64
2023/09/06 14:12:56;;;;;;;2.30;2.20;;;;;;;;;;4948074;28;20218;-62
2023/09/06 14:15:23;;;;;;;2.30;2.20;;;;;;;;;;4947663;28;20586;-63
2023/09/06 14:17:50;;;;;;;3.13;2.40;;;;;;;;;;4948420;28;20508;-63
2023/09/06 14:20:19;;;;;;;2.30;2.20;;;;;;;;;;4947928;28;20222;-63
2023/09/06 14:22:46;;;;;;;2.28;2.17;;;;;;;;;;4948404;28;20219;-63
2023/09/06 14:25:13;;;;;;;2.22;2.13;;;;;;;;;;4947823;29;20792;-63
2023/09/06 14:27:40;;;;;;;2.88;2.40;;;;;;;;;;4948558;29;20238;-63
2023/09/06 14:30:07;;;;;;;2.47;2.38;;;;;;;;;;4948176;29;20219;-64
2023/09/06 14:32:35;;;;;;;2.28;2.17;;;;;;;;;;4947102;28;20294;-63
2023/09/06 14:35:02;;;;;;;2.10;2.10;;;;;;;;;;4948089;29;20238;-64
2023/09/06 14:37:30;;;;;;;2.38;2.28;;;;;;;;;;4948518;28;20325;-64
2023/09/06 14:39:57;;;;;;;2.70;2.50;;;;;;;;;;4947722;29;20333;-63
2023/09/06 14:42:24;;;;;;;2.50;2.40;;;;;;;;;;4948341;29;20242;-63
2023/09/06 14:44:52;;;;;;;2.28;2.13;;;;;;;;;;4947593;28;20207;-63
2023/09/06 14:47:19;;;;;;;2.63;2.40;;;;;;;;;;4946750;29;20247;-64
2023/09/06 14:49:46;;;;;;;2.50;2.40;;;;;;;;;;4942656;28;20605;-63